This is the latest recevied weather packets stored in our database for station/object WO5CID. If no packets are shown the sender has not sent any weather packets the latest 10 day(s).
| Time | Temp. | Humidity | Pressure | Rain* | Wind** | Luminosity | Snow |
|---|---|---|---|---|---|---|---|
| 1777665446 | 32.78° C | 40% | 1009.1 hPa | 0 mm | - | 291 W/m² | - |
| 1777665142 | 32.78° C | 37% | 1009.2 hPa | 0 mm | - | 424 W/m² | - |
| 1777664839 | 32.78° C | 39% | 1009.1 hPa | 0 mm | - | 497 W/m² | - |
| 1777664534 | 32.78° C | 38% | 1009.1 hPa | 0 mm | - | 361 W/m² | - |
| 1777664231 | 32.78° C | 38% | 1009.3 hPa | 0 mm | - | 571 W/m² | - |
| 1777663930 | 33.33° C | 38% | 1009.2 hPa | 0 mm | - | 718 W/m² | - |
| 1777663627 | 32.78° C | 39% | 1009.5 hPa | 0 mm | - | 765 W/m² | - |
| 1777663324 | 32.22° C | 39% | 1009.4 hPa | 0 mm | - | 849 W/m² | - |
| 1777663022 | 32.22° C | 40% | 1009.8 hPa | 0 mm | - | 866 W/m² | - |
| 1777662719 | 33.33° C | 38% | 1009.8 hPa | 0 mm | - | 617 W/m² | - |
| 1777662415 | 32.22° C | 40% | 1010 hPa | 0 mm | - | 877 W/m² | - |
| 1777662110 | 32.78° C | 40% | 1010.1 hPa | 0 mm | - | 831 W/m² | - |
| 1777661807 | 32.22° C | 43% | 1010.1 hPa | 0 mm | - | 860 W/m² | - |
| 1777661502 | 31.67° C | 44% | 1010.3 hPa | 0 mm | - | 630 W/m² | - |
| 1777661199 | 31.67° C | 43% | 1010.1 hPa | 0 mm | - | 281 W/m² | - |
| 1777660893 | 31.11° C | 43% | 1010.2 hPa | 0 mm | - | 688 W/m² | - |
| 1777660591 | 32.22° C | 43% | 1010.3 hPa | 0 mm | - | 219 W/m² | - |
| 1777660287 | 31.67° C | 42% | 1010.5 hPa | 0 mm | - | 915 W/m² | - |
| 1777659983 | 31.11° C | 43% | 1010.5 hPa | 0 mm | - | 1021 W/m² | - |
| 1777659680 | 31.11° C | 44% | 1010.6 hPa | 0 mm | - | 541 W/m² | - |
| 1777659377 | 31.67° C | 41% | 1010.7 hPa | 0 mm | - | 245 W/m² | - |
| 1777659074 | 31.11° C | 44% | 1010.7 hPa | 0 mm | - | 991 W/m² | - |
| 1777658772 | 31.11° C | 43% | 1010.7 hPa | 0 mm | - | 543 W/m² | - |
| 1777658468 | 31.11° C | 44% | 1010.8 hPa | 0 mm | - | 841 W/m² | - |
| 1777658165 | 31.11° C | 45% | 1010.8 hPa | 0 mm | - | 638 W/m² | - |
* Rain latest hour (hover to see other rain measurements)
** Current wind speed in m/s (hover to see current wind gust speed)